sensor_id;sensor_type;location;lat;lon;timestamp;P1;durP1;ratioP1;P2;durP2;ratioP2
44564;SDS011;30275;51.822;-0.326;2023-04-03T00:00:12;3.90;;;1.70;;
44564;SDS011;30275;51.822;-0.326;2023-04-03T00:02:38;3.70;;;1.98;;
44564;SDS011;30275;51.822;-0.326;2023-04-03T00:05:05;6.38;;;1.90;;
44564;SDS011;30275;51.822;-0.326;2023-04-03T00:07:31;10.93;;;2.42;;
44564;SDS011;30275;51.822;-0.326;2023-04-03T00:09:57;3.15;;;1.60;;
44564;SDS011;30275;51.822;-0.326;2023-04-03T00:12:23;2.83;;;1.80;;
44564;SDS011;30275;51.822;-0.326;2023-04-03T00:14:48;5.18;;;2.05;;
44564;SDS011;30275;51.822;-0.326;2023-04-03T00:17:14;6.85;;;2.13;;
44564;SDS011;30275;51.822;-0.326;2023-04-03T00:19:40;4.25;;;1.75;;
44564;SDS011;30275;51.822;-0.326;2023-04-03T00:22:05;8.73;;;2.65;;
44564;SDS011;30275;51.822;-0.326;2023-04-03T00:24:31;3.85;;;1.45;;
44564;SDS011;30275;51.822;-0.326;2023-04-03T00:26:56;3.08;;;1.65;;
44564;SDS011;30275;51.822;-0.326;2023-04-03T00:29:22;7.60;;;1.85;;
44564;SDS011;30275;51.822;-0.326;2023-04-03T00:31:50;7.72;;;2.20;;
44564;SDS011;30275;51.822;-0.326;2023-04-03T00:34:16;4.10;;;1.80;;
44564;SDS011;30275;51.822;-0.326;2023-04-03T00:36:41;8.95;;;2.17;;
44564;SDS011;30275;51.822;-0.326;2023-04-03T00:39:07;4.45;;;1.88;;
44564;SDS011;30275;51.822;-0.326;2023-04-03T00:41:32;5.70;;;1.75;;
44564;SDS011;30275;51.822;-0.326;2023-04-03T00:43:58;4.05;;;1.85;;
44564;SDS011;30275;51.822;-0.326;2023-04-03T00:46:24;6.88;;;2.10;;
44564;SDS011;30275;51.822;-0.326;2023-04-03T00:48:49;6.70;;;2.05;;
44564;SDS011;30275;51.822;-0.326;2023-04-03T00:51:17;8.30;;;2.03;;
44564;SDS011;30275;51.822;-0.326;2023-04-03T00:53:50;5.38;;;2.15;;
44564;SDS011;30275;51.822;-0.326;2023-04-03T00:56:21;7.95;;;1.90;;
44564;SDS011;30275;51.822;-0.326;2023-04-03T00:58:51;5.93;;;2.20;;
44564;SDS011;30275;51.822;-0.326;2023-04-03T01:01:22;3.90;;;1.95;;
44564;SDS011;30275;51.822;-0.326;2023-04-03T01:03:50;5.88;;;2.22;;
44564;SDS011;30275;51.822;-0.326;2023-04-03T01:06:16;8.20;;;2.33;;
44564;SDS011;30275;51.822;-0.326;2023-04-03T01:08:45;7.03;;;2.55;;
44564;SDS011;30275;51.822;-0.326;2023-04-03T01:11:14;9.02;;;3.45;;
44564;SDS011;30275;51.822;-0.326;2023-04-03T01:13:39;6.68;;;2.30;;
44564;SDS011;30275;51.822;-0.326;2023-04-03T01:16:05;9.00;;;2.65;;
44564;SDS011;30275;51.822;-0.326;2023-04-03T01:18:32;7.93;;;3.10;;
44564;SDS011;30275;51.822;-0.326;2023-04-03T01:26:38;6.95;;;3.17;;
44564;SDS011;30275;51.822;-0.326;2023-04-03T01:29:04;8.77;;;3.20;;
44564;SDS011;30275;51.822;-0.326;2023-04-03T01:31:32;6.93;;;3.30;;
44564;SDS011;30275;51.822;-0.326;2023-04-03T01:34:17;10.43;;;3.60;;
44564;SDS011;30275;51.822;-0.326;2023-04-03T01:36:43;8.23;;;3.90;;
44564;SDS011;30275;51.822;-0.326;2023-04-03T01:39:09;15.00;;;3.95;;
44564;SDS011;30275;51.822;-0.326;2023-04-03T01:41:34;8.80;;;3.58;;
44564;SDS011;30275;51.822;-0.326;2023-04-03T01:44:00;8.38;;;3.65;;
44564;SDS011;30275;51.822;-0.326;2023-04-03T01:46:26;6.43;;;3.38;;
44564;SDS011;30275;51.822;-0.326;2023-04-03T01:48:52;6.38;;;3.42;;
44564;SDS011;30275;51.822;-0.326;2023-04-03T01:51:17;11.70;;;3.50;;
44564;SDS011;30275;51.822;-0.326;2023-04-03T01:53:43;6.18;;;3.25;;
44564;SDS011;30275;51.822;-0.326;2023-04-03T01:56:08;10.65;;;3.90;;
44564;SDS011;30275;51.822;-0.326;2023-04-03T01:58:34;6.68;;;3.60;;
44564;SDS011;30275;51.822;-0.326;2023-04-03T02:01:00;11.38;;;3.45;;
44564;SDS011;30275;51.822;-0.326;2023-04-03T02:03:26;6.10;;;3.10;;
44564;SDS011;30275;51.822;-0.326;2023-04-03T02:05:52;8.82;;;3.80;;
44564;SDS011;30275;51.822;-0.326;2023-04-03T02:08:17;10.07;;;3.55;;
44564;SDS011;30275;51.822;-0.326;2023-04-03T02:10:43;5.72;;;3.00;;
44564;SDS011;30275;51.822;-0.326;2023-04-03T02:13:11;6.30;;;2.95;;
44564;SDS011;30275;51.822;-0.326;2023-04-03T02:15:38;10.85;;;3.70;;
44564;SDS011;30275;51.822;-0.326;2023-04-03T02:18:04;7.10;;;2.70;;
44564;SDS011;30275;51.822;-0.326;2023-04-03T02:20:30;6.68;;;2.75;;
44564;SDS011;30275;51.822;-0.326;2023-04-03T02:22:56;9.85;;;3.10;;
44564;SDS011;30275;51.822;-0.326;2023-04-03T02:25:21;10.15;;;3.17;;
44564;SDS011;30275;51.822;-0.326;2023-04-03T02:27:47;11.13;;;3.40;;
44564;SDS011;30275;51.822;-0.326;2023-04-03T02:30:13;7.32;;;3.20;;
44564;SDS011;30275;51.822;-0.326;2023-04-03T02:32:39;5.97;;;2.92;;
44564;SDS011;30275;51.822;-0.326;2023-04-03T02:35:05;5.60;;;2.97;;
44564;SDS011;30275;51.822;-0.326;2023-04-03T02:37:31;10.23;;;4.88;;
44564;SDS011;30275;51.822;-0.326;2023-04-03T02:39:57;8.00;;;3.83;;
44564;SDS011;30275;51.822;-0.326;2023-04-03T02:42:23;7.18;;;2.95;;
44564;SDS011;30275;51.822;-0.326;2023-04-03T02:44:49;4.40;;;2.83;;
44564;SDS011;30275;51.822;-0.326;2023-04-03T02:47:14;7.38;;;3.00;;
44564;SDS011;30275;51.822;-0.326;2023-04-03T02:49:40;6.38;;;3.20;;
44564;SDS011;30275;51.822;-0.326;2023-04-03T02:52:08;6.25;;;3.03;;
44564;SDS011;30275;51.822;-0.326;2023-04-03T02:54:34;7.57;;;2.90;;
44564;SDS011;30275;51.822;-0.326;2023-04-03T02:57:00;4.28;;;2.30;;
44564;SDS011;30275;51.822;-0.326;2023-04-03T02:59:26;6.13;;;3.05;;
44564;SDS011;30275;51.822;-0.326;2023-04-03T03:01:51;7.47;;;2.45;;
44564;SDS011;30275;51.822;-0.326;2023-04-03T03:04:17;5.38;;;3.10;;
44564;SDS011;30275;51.822;-0.326;2023-04-03T03:06:43;6.13;;;2.92;;
44564;SDS011;30275;51.822;-0.326;2023-04-03T03:09:09;5.22;;;2.90;;
44564;SDS011;30275;51.822;-0.326;2023-04-03T03:11:35;9.43;;;2.90;;
44564;SDS011;30275;51.822;-0.326;2023-04-03T03:14:00;7.00;;;2.40;;
44564;SDS011;30275;51.822;-0.326;2023-04-03T03:16:26;8.20;;;2.75;;
44564;SDS011;30275;51.822;-0.326;2023-04-03T03:18:51;8.38;;;3.30;;
44564;SDS011;30275;51.822;-0.326;2023-04-03T03:21:17;10.48;;;3.20;;
44564;SDS011;30275;51.822;-0.326;2023-04-03T03:23:43;6.90;;;3.38;;
44564;SDS011;30275;51.822;-0.326;2023-04-03T03:26:09;7.40;;;3.33;;
44564;SDS011;30275;51.822;-0.326;2023-04-03T03:28:35;8.32;;;2.63;;
44564;SDS011;30275;51.822;-0.326;2023-04-03T03:31:02;6.30;;;3.30;;
44564;SDS011;30275;51.822;-0.326;2023-04-03T03:33:28;9.35;;;4.65;;
44564;SDS011;30275;51.822;-0.326;2023-04-03T03:35:54;7.68;;;3.40;;
44564;SDS011;30275;51.822;-0.326;2023-04-03T03:38:20;9.18;;;2.90;;
44564;SDS011;30275;51.822;-0.326;2023-04-03T03:40:47;11.50;;;3.25;;
44564;SDS011;30275;51.822;-0.326;2023-04-03T03:43:13;8.52;;;3.10;;
44564;SDS011;30275;51.822;-0.326;2023-04-03T03:45:40;10.82;;;3.20;;
44564;SDS011;30275;51.822;-0.326;2023-04-03T03:48:05;7.00;;;2.70;;
44564;SDS011;30275;51.822;-0.326;2023-04-03T03:50:31;5.63;;;2.90;;
44564;SDS011;30275;51.822;-0.326;2023-04-03T03:52:57;6.72;;;2.90;;
44564;SDS011;30275;51.822;-0.326;2023-04-03T03:55:22;8.98;;;4.15;;
44564;SDS011;30275;51.822;-0.326;2023-04-03T03:57:48;7.03;;;3.53;;
44564;SDS011;30275;51.822;-0.326;2023-04-03T04:00:14;8.85;;;2.97;;
44564;SDS011;30275;51.822;-0.326;2023-04-03T04:02:40;6.47;;;3.10;;
44564;SDS011;30275;51.822;-0.326;2023-04-03T04:05:06;8.80;;;3.40;;
44564;SDS011;30275;51.822;-0.326;2023-04-03T04:07:32;9.38;;;3.95;;
44564;SDS011;30275;51.822;-0.326;2023-04-03T04:09:57;10.80;;;2.88;;
44564;SDS011;30275;51.822;-0.326;2023-04-03T04:12:23;7.75;;;3.58;;
44564;SDS011;30275;51.822;-0.326;2023-04-03T04:14:48;11.80;;;3.90;;
44564;SDS011;30275;51.822;-0.326;2023-04-03T04:17:14;7.80;;;2.90;;
44564;SDS011;30275;51.822;-0.326;2023-04-03T04:19:40;6.03;;;3.17;;
44564;SDS011;30275;51.822;-0.326;2023-04-03T04:22:06;10.52;;;4.45;;
44564;SDS011;30275;51.822;-0.326;2023-04-03T04:24:31;7.95;;;3.17;;
44564;SDS011;30275;51.822;-0.326;2023-04-03T04:26:57;12.07;;;4.65;;
44564;SDS011;30275;51.822;-0.326;2023-04-03T04:29:23;8.10;;;3.28;;
44564;SDS011;30275;51.822;-0.326;2023-04-03T04:31:48;6.13;;;3.50;;
44564;SDS011;30275;51.822;-0.326;2023-04-03T04:34:14;11.43;;;3.03;;
44564;SDS011;30275;51.822;-0.326;2023-04-03T04:36:40;5.97;;;2.80;;
44564;SDS011;30275;51.822;-0.326;2023-04-03T04:39:06;7.68;;;3.42;;
44564;SDS011;30275;51.822;-0.326;2023-04-03T04:41:31;6.00;;;3.25;;
44564;SDS011;30275;51.822;-0.326;2023-04-03T04:43:57;8.32;;;3.50;;
44564;SDS011;30275;51.822;-0.326;2023-04-03T04:46:23;5.22;;;2.78;;
44564;SDS011;30275;51.822;-0.326;2023-04-03T04:48:48;10.10;;;3.28;;
44564;SDS011;30275;51.822;-0.326;2023-04-03T04:51:14;8.55;;;3.38;;
44564;SDS011;30275;51.822;-0.326;2023-04-03T04:53:40;4.95;;;2.90;;
44564;SDS011;30275;51.822;-0.326;2023-04-03T04:56:06;8.20;;;3.70;;
44564;SDS011;30275;51.822;-0.326;2023-04-03T04:58:32;5.68;;;2.83;;
44564;SDS011;30275;51.822;-0.326;2023-04-03T05:01:01;8.13;;;3.20;;
44564;SDS011;30275;51.822;-0.326;2023-04-03T05:03:27;7.63;;;3.42;;
44564;SDS011;30275;51.822;-0.326;2023-04-03T05:05:53;7.55;;;3.28;;
44564;SDS011;30275;51.822;-0.326;2023-04-03T05:08:19;6.80;;;2.70;;
44564;SDS011;30275;51.822;-0.326;2023-04-03T05:10:45;8.80;;;3.47;;
44564;SDS011;30275;51.822;-0.326;2023-04-03T05:13:11;7.38;;;3.50;;
44564;SDS011;30275;51.822;-0.326;2023-04-03T05:15:37;5.97;;;2.60;;
44564;SDS011;30275;51.822;-0.326;2023-04-03T05:18:02;4.93;;;2.95;;
44564;SDS011;30275;51.822;-0.326;2023-04-03T05:20:28;8.50;;;3.55;;
44564;SDS011;30275;51.822;-0.326;2023-04-03T05:22:54;5.70;;;3.03;;
44564;SDS011;30275;51.822;-0.326;2023-04-03T05:25:19;8.85;;;3.50;;
44564;SDS011;30275;51.822;-0.326;2023-04-03T05:27:45;8.25;;;3.35;;
44564;SDS011;30275;51.822;-0.326;2023-04-03T05:30:11;7.63;;;3.00;;
44564;SDS011;30275;51.822;-0.326;2023-04-03T05:32:37;6.72;;;3.22;;
44564;SDS011;30275;51.822;-0.326;2023-04-03T05:35:02;7.18;;;2.70;;
44564;SDS011;30275;51.822;-0.326;2023-04-03T05:37:29;8.40;;;3.28;;
44564;SDS011;30275;51.822;-0.326;2023-04-03T05:39:55;6.47;;;3.25;;
44564;SDS011;30275;51.822;-0.326;2023-04-03T05:42:20;13.35;;;3.80;;
44564;SDS011;30275;51.822;-0.326;2023-04-03T05:44:46;9.88;;;3.67;;
44564;SDS011;30275;51.822;-0.326;2023-04-03T05:47:12;10.45;;;3.05;;
44564;SDS011;30275;51.822;-0.326;2023-04-03T05:49:38;7.28;;;2.92;;
44564;SDS011;30275;51.822;-0.326;2023-04-03T05:52:08;7.97;;;2.97;;
44564;SDS011;30275;51.822;-0.326;2023-04-03T05:54:50;10.00;;;3.40;;
44564;SDS011;30275;51.822;-0.326;2023-04-03T05:57:16;9.63;;;3.72;;
44564;SDS011;30275;51.822;-0.326;2023-04-03T05:59:42;8.40;;;4.10;;
44564;SDS011;30275;51.822;-0.326;2023-04-03T06:02:11;5.38;;;3.13;;
44564;SDS011;30275;51.822;-0.326;2023-04-03T06:04:38;9.70;;;3.97;;
44564;SDS011;30275;51.822;-0.326;2023-04-03T06:07:04;10.02;;;3.33;;
44564;SDS011;30275;51.822;-0.326;2023-04-03T06:09:30;9.48;;;3.80;;
44564;SDS011;30275;51.822;-0.326;2023-04-03T06:11:56;8.80;;;4.13;;
44564;SDS011;30275;51.822;-0.326;2023-04-03T06:14:23;9.52;;;3.55;;
44564;SDS011;30275;51.822;-0.326;2023-04-03T06:16:50;9.02;;;3.45;;
44564;SDS011;30275;51.822;-0.326;2023-04-03T06:19:17;8.48;;;3.55;;
44564;SDS011;30275;51.822;-0.326;2023-04-03T06:21:43;9.40;;;3.85;;
44564;SDS011;30275;51.822;-0.326;2023-04-03T06:24:09;10.68;;;3.78;;
44564;SDS011;30275;51.822;-0.326;2023-04-03T06:26:38;7.88;;;3.78;;
44564;SDS011;30275;51.822;-0.326;2023-04-03T06:29:04;9.48;;;4.30;;
44564;SDS011;30275;51.822;-0.326;2023-04-03T06:31:29;10.82;;;4.75;;
44564;SDS011;30275;51.822;-0.326;2023-04-03T06:33:55;7.78;;;3.70;;
44564;SDS011;30275;51.822;-0.326;2023-04-03T06:36:21;9.75;;;3.78;;
44564;SDS011;30275;51.822;-0.326;2023-04-03T06:38:47;9.32;;;3.53;;
44564;SDS011;30275;51.822;-0.326;2023-04-03T06:41:13;11.02;;;3.85;;
44564;SDS011;30275;51.822;-0.326;2023-04-03T06:43:39;7.68;;;3.60;;
44564;SDS011;30275;51.822;-0.326;2023-04-03T06:46:05;6.65;;;3.22;;
44564;SDS011;30275;51.822;-0.326;2023-04-03T06:48:31;8.35;;;3.95;;
44564;SDS011;30275;51.822;-0.326;2023-04-03T06:50:57;7.43;;;3.25;;
44564;SDS011;30275;51.822;-0.326;2023-04-03T06:53:23;7.00;;;3.35;;
44564;SDS011;30275;51.822;-0.326;2023-04-03T06:55:48;8.93;;;3.13;;
44564;SDS011;30275;51.822;-0.326;2023-04-03T06:58:14;5.60;;;3.03;;
44564;SDS011;30275;51.822;-0.326;2023-04-03T07:00:42;8.18;;;3.50;;
44564;SDS011;30275;51.822;-0.326;2023-04-03T07:03:08;6.72;;;3.35;;
44564;SDS011;30275;51.822;-0.326;2023-04-03T07:05:34;10.50;;;4.18;;
44564;SDS011;30275;51.822;-0.326;2023-04-03T07:07:59;8.10;;;3.17;;
44564;SDS011;30275;51.822;-0.326;2023-04-03T07:10:25;6.13;;;2.90;;
44564;SDS011;30275;51.822;-0.326;2023-04-03T07:12:51;5.65;;;3.10;;
44564;SDS011;30275;51.822;-0.326;2023-04-03T07:15:17;11.70;;;3.47;;
44564;SDS011;30275;51.822;-0.326;2023-04-03T07:17:43;9.10;;;3.55;;
44564;SDS011;30275;51.822;-0.326;2023-04-03T07:20:09;8.05;;;3.10;;
44564;SDS011;30275;51.822;-0.326;2023-04-03T07:22:35;7.05;;;3.75;;
44564;SDS011;30275;51.822;-0.326;2023-04-03T07:25:01;7.93;;;3.08;;
44564;SDS011;30275;51.822;-0.326;2023-04-03T07:27:27;7.32;;;3.33;;
44564;SDS011;30275;51.822;-0.326;2023-04-03T07:29:53;6.05;;;2.92;;
44564;SDS011;30275;51.822;-0.326;2023-04-03T07:32:20;8.57;;;3.28;;
44564;SDS011;30275;51.822;-0.326;2023-04-03T07:34:46;19.65;;;3.00;;
44564;SDS011;30275;51.822;-0.326;2023-04-03T07:37:12;8.70;;;2.83;;
44564;SDS011;30275;51.822;-0.326;2023-04-03T07:39:37;5.88;;;2.88;;
44564;SDS011;30275;51.822;-0.326;2023-04-03T07:42:03;5.50;;;2.88;;
44564;SDS011;30275;51.822;-0.326;2023-04-03T07:44:29;7.30;;;2.80;;
44564;SDS011;30275;51.822;-0.326;2023-04-03T07:46:55;6.32;;;2.58;;
44564;SDS011;30275;51.822;-0.326;2023-04-03T07:49:21;8.32;;;3.08;;
44564;SDS011;30275;51.822;-0.326;2023-04-03T07:51:49;5.90;;;3.60;;
44564;SDS011;30275;51.822;-0.326;2023-04-03T07:54:14;5.07;;;2.90;;
44564;SDS011;30275;51.822;-0.326;2023-04-03T07:56:41;5.28;;;2.47;;
44564;SDS011;30275;51.822;-0.326;2023-04-03T07:59:07;7.15;;;2.45;;
44564;SDS011;30275;51.822;-0.326;2023-04-03T08:01:33;4.05;;;2.50;;
44564;SDS011;30275;51.822;-0.326;2023-04-03T08:03:59;6.90;;;3.10;;
44564;SDS011;30275;51.822;-0.326;2023-04-03T08:06:25;9.07;;;2.70;;
44564;SDS011;30275;51.822;-0.326;2023-04-03T08:08:51;5.25;;;2.92;;
44564;SDS011;30275;51.822;-0.326;2023-04-03T08:11:17;6.13;;;3.00;;
44564;SDS011;30275;51.822;-0.326;2023-04-03T08:13:43;6.20;;;2.63;;
44564;SDS011;30275;51.822;-0.326;2023-04-03T08:16:10;6.30;;;3.05;;
44564;SDS011;30275;51.822;-0.326;2023-04-03T08:18:43;5.13;;;2.85;;
44564;SDS011;30275;51.822;-0.326;2023-04-03T08:21:09;11.07;;;2.78;;
44564;SDS011;30275;51.822;-0.326;2023-04-03T08:23:36;7.15;;;2.65;;
44564;SDS011;30275;51.822;-0.326;2023-04-03T08:26:09;10.15;;;3.10;;
44564;SDS011;30275;51.822;-0.326;2023-04-03T08:28:37;5.60;;;2.63;;
44564;SDS011;30275;51.822;-0.326;2023-04-03T08:31:04;6.07;;;2.70;;
44564;SDS011;30275;51.822;-0.326;2023-04-03T08:33:31;14.73;;;3.97;;
44564;SDS011;30275;51.822;-0.326;2023-04-03T08:35:57;6.07;;;2.97;;
44564;SDS011;30275;51.822;-0.326;2023-04-03T08:38:23;12.82;;;3.17;;
44564;SDS011;30275;51.822;-0.326;2023-04-03T08:40:59;6.22;;;2.40;;
44564;SDS011;30275;51.822;-0.326;2023-04-03T08:46:19;6.53;;;2.95;;
44564;SDS011;30275;51.822;-0.326;2023-04-03T08:48:51;9.05;;;3.67;;
44564;SDS011;30275;51.822;-0.326;2023-04-03T08:51:18;5.18;;;2.63;;
44564;SDS011;30275;51.822;-0.326;2023-04-03T08:54:01;7.97;;;2.60;;
44564;SDS011;30275;51.822;-0.326;2023-04-03T08:56:33;7.43;;;2.72;;
44564;SDS011;30275;51.822;-0.326;2023-04-03T08:59:00;6.97;;;2.53;;
44564;SDS011;30275;51.822;-0.326;2023-04-03T09:01:34;4.95;;;2.67;;
44564;SDS011;30275;51.822;-0.326;2023-04-03T09:06:34;7.20;;;2.63;;
44564;SDS011;30275;51.822;-0.326;2023-04-03T09:14:46;7.00;;;2.28;;
44564;SDS011;30275;51.822;-0.326;2023-04-03T09:17:26;7.38;;;2.88;;
44564;SDS011;30275;51.822;-0.326;2023-04-03T09:23:00;5.68;;;2.88;;
44564;SDS011;30275;51.822;-0.326;2023-04-03T09:25:34;7.63;;;2.90;;
44564;SDS011;30275;51.822;-0.326;2023-04-03T09:28:02;5.68;;;2.97;;
44564;SDS011;30275;51.822;-0.326;2023-04-03T09:33:00;8.20;;;3.10;;
44564;SDS011;30275;51.822;-0.326;2023-04-03T09:35:27;8.75;;;2.72;;
44564;SDS011;30275;51.822;-0.326;2023-04-03T09:38:00;7.13;;;3.13;;
44564;SDS011;30275;51.822;-0.326;2023-04-03T09:40:37;6.72;;;3.40;;
44564;SDS011;30275;51.822;-0.326;2023-04-03T09:45:42;11.77;;;3.47;;
44564;SDS011;30275;51.822;-0.326;2023-04-03T09:48:15;6.47;;;3.25;;
44564;SDS011;30275;51.822;-0.326;2023-04-03T09:50:56;8.05;;;3.70;;
44564;SDS011;30275;51.822;-0.326;2023-04-03T09:53:29;5.82;;;3.30;;
44564;SDS011;30275;51.822;-0.326;2023-04-03T09:55:57;10.35;;;3.88;;
44564;SDS011;30275;51.822;-0.326;2023-04-03T09:58:27;7.47;;;4.07;;
44564;SDS011;30275;51.822;-0.326;2023-04-03T10:00:58;6.15;;;3.63;;
44564;SDS011;30275;51.822;-0.326;2023-04-03T10:03:28;6.32;;;4.18;;
44564;SDS011;30275;51.822;-0.326;2023-04-03T10:05:59;7.15;;;3.58;;
44564;SDS011;30275;51.822;-0.326;2023-04-03T10:08:27;6.63;;;4.28;;
44564;SDS011;30275;51.822;-0.326;2023-04-03T10:11:05;5.65;;;3.70;;
44564;SDS011;30275;51.822;-0.326;2023-04-03T10:13:31;5.50;;;3.22;;
44564;SDS011;30275;51.822;-0.326;2023-04-03T10:16:05;12.48;;;4.43;;
44564;SDS011;30275;51.822;-0.326;2023-04-03T10:18:39;5.60;;;3.80;;
44564;SDS011;30275;51.822;-0.326;2023-04-03T10:21:14;5.70;;;3.38;;
44564;SDS011;30275;51.822;-0.326;2023-04-03T10:23:47;7.40;;;3.65;;
44564;SDS011;30275;51.822;-0.326;2023-04-03T10:34:33;3.92;;;2.72;;
44564;SDS011;30275;51.822;-0.326;2023-04-03T10:37:16;3.85;;;2.65;;
44564;SDS011;30275;51.822;-0.326;2023-04-03T10:45:28;5.47;;;2.85;;
44564;SDS011;30275;51.822;-0.326;2023-04-03T10:53:10;9.63;;;5.28;;
44564;SDS011;30275;51.822;-0.326;2023-04-03T10:58:35;8.63;;;6.43;;
44564;SDS011;30275;51.822;-0.326;2023-04-03T11:01:08;13.35;;;7.97;;
44564;SDS011;30275;51.822;-0.326;2023-04-03T11:03:40;8.73;;;4.07;;
44564;SDS011;30275;51.822;-0.326;2023-04-03T11:06:10;5.80;;;4.65;;
44564;SDS011;30275;51.822;-0.326;2023-04-03T11:08:46;7.40;;;4.28;;
44564;SDS011;30275;51.822;-0.326;2023-04-03T11:11:27;5.03;;;2.67;;
44564;SDS011;30275;51.822;-0.326;2023-04-03T11:14:05;5.57;;;2.53;;
44564;SDS011;30275;51.822;-0.326;2023-04-03T11:16:55;17.33;;;5.28;;
44564;SDS011;30275;51.822;-0.326;2023-04-03T11:19:31;10.85;;;3.83;;
44564;SDS011;30275;51.822;-0.326;2023-04-03T11:25:05;5.85;;;2.67;;
44564;SDS011;30275;51.822;-0.326;2023-04-03T11:27:49;6.45;;;3.17;;
44564;SDS011;30275;51.822;-0.326;2023-04-03T11:30:22;6.50;;;3.22;;
44564;SDS011;30275;51.822;-0.326;2023-04-03T11:33:12;5.07;;;2.70;;
44564;SDS011;30275;51.822;-0.326;2023-04-03T11:36:06;6.38;;;4.10;;
44564;SDS011;30275;51.822;-0.326;2023-04-03T11:38:37;6.72;;;3.80;;
44564;SDS011;30275;51.822;-0.326;2023-04-03T11:41:08;8.23;;;4.90;;
44564;SDS011;30275;51.822;-0.326;2023-04-03T11:43:39;6.28;;;3.92;;
44564;SDS011;30275;51.822;-0.326;2023-04-03T11:46:07;7.07;;;3.67;;
44564;SDS011;30275;51.822;-0.326;2023-04-03T11:53:33;7.43;;;3.67;;
44564;SDS011;30275;51.822;-0.326;2023-04-03T12:01:06;6.97;;;2.78;;
44564;SDS011;30275;51.822;-0.326;2023-04-03T12:03:56;6.25;;;3.00;;
44564;SDS011;30275;51.822;-0.326;2023-04-03T12:08:57;5.07;;;2.78;;
44564;SDS011;30275;51.822;-0.326;2023-04-03T12:11:30;4.63;;;3.08;;
44564;SDS011;30275;51.822;-0.326;2023-04-03T12:29:33;7.65;;;3.53;;
44564;SDS011;30275;51.822;-0.326;2023-04-03T12:41:15;5.47;;;3.45;;
44564;SDS011;30275;51.822;-0.326;2023-04-03T12:44:07;6.82;;;3.08;;
44564;SDS011;30275;51.822;-0.326;2023-04-03T12:46:36;6.53;;;2.88;;
44564;SDS011;30275;51.822;-0.326;2023-04-03T12:51:51;5.22;;;3.20;;
44564;SDS011;30275;51.822;-0.326;2023-04-03T12:56:51;7.32;;;3.45;;
44564;SDS011;30275;51.822;-0.326;2023-04-03T12:59:24;6.80;;;3.20;;
44564;SDS011;30275;51.822;-0.326;2023-04-03T13:01:54;5.18;;;3.60;;
44564;SDS011;30275;51.822;-0.326;2023-04-03T13:04:22;6.30;;;3.70;;
44564;SDS011;30275;51.822;-0.326;2023-04-03T13:06:49;6.80;;;4.03;;
44564;SDS011;30275;51.822;-0.326;2023-04-03T13:09:28;3.97;;;3.30;;
44564;SDS011;30275;51.822;-0.326;2023-04-03T13:11:57;7.47;;;3.70;;
44564;SDS011;30275;51.822;-0.326;2023-04-03T13:14:29;7.28;;;3.60;;
44564;SDS011;30275;51.822;-0.326;2023-04-03T13:16:56;6.18;;;3.05;;
44564;SDS011;30275;51.822;-0.326;2023-04-03T13:19:26;5.30;;;3.35;;
44564;SDS011;30275;51.822;-0.326;2023-04-03T13:21:59;6.82;;;3.30;;
44564;SDS011;30275;51.822;-0.326;2023-04-03T13:24:35;5.20;;;3.10;;
44564;SDS011;30275;51.822;-0.326;2023-04-03T13:27:03;5.40;;;3.15;;
44564;SDS011;30275;51.822;-0.326;2023-04-03T13:29:31;5.78;;;2.92;;
44564;SDS011;30275;51.822;-0.326;2023-04-03T13:32:00;7.65;;;2.97;;
44564;SDS011;30275;51.822;-0.326;2023-04-03T13:34:28;4.43;;;2.63;;
44564;SDS011;30275;51.822;-0.326;2023-04-03T13:37:05;3.40;;;2.55;;
44564;SDS011;30275;51.822;-0.326;2023-04-03T13:39:34;6.53;;;3.00;;
44564;SDS011;30275;51.822;-0.326;2023-04-03T13:42:15;6.55;;;3.38;;
44564;SDS011;30275;51.822;-0.326;2023-04-03T13:44:41;5.40;;;3.67;;
44564;SDS011;30275;51.822;-0.326;2023-04-03T13:47:19;5.00;;;2.92;;
44564;SDS011;30275;51.822;-0.326;2023-04-03T13:52:41;5.15;;;2.55;;
44564;SDS011;30275;51.822;-0.326;2023-04-03T13:55:17;3.40;;;2.30;;
44564;SDS011;30275;51.822;-0.326;2023-04-03T13:57:59;5.93;;;2.67;;
44564;SDS011;30275;51.822;-0.326;2023-04-03T14:00:32;6.78;;;2.50;;
44564;SDS011;30275;51.822;-0.326;2023-04-03T14:03:11;6.50;;;2.30;;
44564;SDS011;30275;51.822;-0.326;2023-04-03T14:05:38;3.95;;;2.45;;
44564;SDS011;30275;51.822;-0.326;2023-04-03T14:08:04;5.60;;;2.72;;
44564;SDS011;30275;51.822;-0.326;2023-04-03T14:10:31;5.55;;;2.72;;
44564;SDS011;30275;51.822;-0.326;2023-04-03T14:12:56;4.97;;;2.80;;
44564;SDS011;30275;51.822;-0.326;2023-04-03T14:15:23;8.00;;;2.97;;
44564;SDS011;30275;51.822;-0.326;2023-04-03T14:17:52;5.15;;;2.75;;
44564;SDS011;30275;51.822;-0.326;2023-04-03T14:20:19;6.90;;;3.40;;
44564;SDS011;30275;51.822;-0.326;2023-04-03T14:22:47;4.60;;;3.00;;
44564;SDS011;30275;51.822;-0.326;2023-04-03T14:25:13;8.57;;;3.47;;
44564;SDS011;30275;51.822;-0.326;2023-04-03T14:27:41;5.47;;;3.25;;
44564;SDS011;30275;51.822;-0.326;2023-04-03T14:30:12;5.97;;;2.90;;
44564;SDS011;30275;51.822;-0.326;2023-04-03T14:32:48;5.82;;;2.80;;
44564;SDS011;30275;51.822;-0.326;2023-04-03T14:35:15;4.40;;;3.10;;
44564;SDS011;30275;51.822;-0.326;2023-04-03T14:37:41;4.38;;;3.00;;
44564;SDS011;30275;51.822;-0.326;2023-04-03T14:40:07;5.80;;;3.00;;
44564;SDS011;30275;51.822;-0.326;2023-04-03T14:42:34;4.63;;;3.20;;
44564;SDS011;30275;51.822;-0.326;2023-04-03T14:45:03;5.28;;;2.97;;
44564;SDS011;30275;51.822;-0.326;2023-04-03T14:47:31;4.85;;;2.90;;
44564;SDS011;30275;51.822;-0.326;2023-04-03T14:49:59;6.05;;;4.35;;
44564;SDS011;30275;51.822;-0.326;2023-04-03T14:52:27;9.32;;;6.65;;
44564;SDS011;30275;51.822;-0.326;2023-04-03T14:54:58;4.20;;;3.10;;
44564;SDS011;30275;51.822;-0.326;2023-04-03T14:57:25;5.07;;;3.00;;
44564;SDS011;30275;51.822;-0.326;2023-04-03T14:59:53;4.18;;;2.60;;
44564;SDS011;30275;51.822;-0.326;2023-04-03T15:04:50;3.72;;;3.10;;
44564;SDS011;30275;51.822;-0.326;2023-04-03T15:07:15;6.50;;;3.25;;
44564;SDS011;30275;51.822;-0.326;2023-04-03T15:09:41;6.18;;;2.67;;
44564;SDS011;30275;51.822;-0.326;2023-04-03T15:12:08;3.30;;;2.70;;
44564;SDS011;30275;51.822;-0.326;2023-04-03T15:14:34;6.65;;;3.20;;
44564;SDS011;30275;51.822;-0.326;2023-04-03T15:16:59;5.93;;;2.95;;
44564;SDS011;30275;51.822;-0.326;2023-04-03T15:19:25;4.00;;;2.83;;
44564;SDS011;30275;51.822;-0.326;2023-04-03T15:21:51;4.32;;;2.80;;
44564;SDS011;30275;51.822;-0.326;2023-04-03T15:24:16;4.22;;;2.92;;
44564;SDS011;30275;51.822;-0.326;2023-04-03T15:26:42;4.22;;;2.95;;
44564;SDS011;30275;51.822;-0.326;2023-04-03T15:29:07;6.03;;;3.15;;
44564;SDS011;30275;51.822;-0.326;2023-04-03T15:31:33;5.82;;;3.20;;
44564;SDS011;30275;51.822;-0.326;2023-04-03T15:33:59;5.00;;;2.92;;
44564;SDS011;30275;51.822;-0.326;2023-04-03T15:36:25;6.22;;;2.75;;
44564;SDS011;30275;51.822;-0.326;2023-04-03T15:38:50;4.57;;;2.80;;
44564;SDS011;30275;51.822;-0.326;2023-04-03T15:41:16;5.10;;;2.60;;
44564;SDS011;30275;51.822;-0.326;2023-04-03T15:43:41;5.20;;;3.08;;
44564;SDS011;30275;51.822;-0.326;2023-04-03T15:46:07;5.43;;;2.97;;
44564;SDS011;30275;51.822;-0.326;2023-04-03T15:48:33;4.40;;;2.47;;
44564;SDS011;30275;51.822;-0.326;2023-04-03T15:51:00;6.05;;;3.17;;
44564;SDS011;30275;51.822;-0.326;2023-04-03T15:53:26;4.60;;;2.75;;
44564;SDS011;30275;51.822;-0.326;2023-04-03T15:55:51;4.90;;;3.08;;
44564;SDS011;30275;51.822;-0.326;2023-04-03T15:58:17;7.15;;;3.45;;
44564;SDS011;30275;51.822;-0.326;2023-04-03T16:00:42;9.75;;;3.88;;
44564;SDS011;30275;51.822;-0.326;2023-04-03T16:03:10;6.45;;;3.50;;
44564;SDS011;30275;51.822;-0.326;2023-04-03T16:05:37;6.90;;;3.03;;
44564;SDS011;30275;51.822;-0.326;2023-04-03T16:08:04;5.95;;;3.85;;
44564;SDS011;30275;51.822;-0.326;2023-04-03T16:10:32;7.22;;;3.20;;
44564;SDS011;30275;51.822;-0.326;2023-04-03T16:12:59;22.33;;;14.35;;
44564;SDS011;30275;51.822;-0.326;2023-04-03T16:15:25;31.08;;;17.88;;